Huntington, Connecticut
Current Conditions -  °F | °C
As of 8:52 PM on Thursday 18 Dec 2014 (Local Time) from KBDR Reporting Station
Clear Clear  
Wind Chill: 31°   Ceiling: Unl
Heat Index: 35°   Visibility: 10mi
Dew Point: 26°   Wind: 5mph
Humidity: 70%   Direction: 300°WNW
Pressure: 29.94"   Gusts: NA
Location:  41.3059°N, 73.1393°W
Report Text: KBDR 190152Z 30004KT 10SM CLR 02/M03 A2994 RMK AO2 SLP138 T00171033
Loading
Personal Weather Stations






























Interactive Weather Map New forecast layout! Learn more

10-Day Weather Forecast

Advertisements
Track Severe Weather on mobile